sensor_id;sensor_type;location;lat;lon;timestamp;P1;durP1;ratioP1;P2;durP2;ratioP2
62353;SDS011;48391;49.184;2.418;2024-03-29T07:15:50;6.28;;;1.23;;
62353;SDS011;48391;49.184;2.418;2024-03-29T07:18:16;2.80;;;1.50;;
62353;SDS011;48391;49.184;2.418;2024-03-29T07:20:42;4.18;;;1.67;;
62353;SDS011;48391;49.184;2.418;2024-03-29T07:23:09;2.38;;;1.20;;
62353;SDS011;48391;49.184;2.418;2024-03-29T07:25:36;2.63;;;1.10;;
62353;SDS011;48391;49.184;2.418;2024-03-29T07:28:02;3.25;;;0.95;;
62353;SDS011;48391;49.184;2.418;2024-03-29T07:30:28;0.90;;;0.70;;
62353;SDS011;48391;49.184;2.418;2024-03-29T07:32:54;3.35;;;1.85;;
62353;SDS011;48391;49.184;2.418;2024-03-29T07:35:20;3.83;;;1.30;;
62353;SDS011;48391;49.184;2.418;2024-03-29T07:37:46;1.65;;;1.15;;
62353;SDS011;48391;49.184;2.418;2024-03-29T07:40:15;4.78;;;1.60;;
62353;SDS011;48391;49.184;2.418;2024-03-29T07:42:41;3.55;;;2.08;;
62353;SDS011;48391;49.184;2.418;2024-03-29T07:45:07;7.07;;;2.40;;
62353;SDS011;48391;49.184;2.418;2024-03-29T07:47:34;8.35;;;2.45;;
62353;SDS011;48391;49.184;2.418;2024-03-29T07:50:00;8.23;;;3.35;;
62353;SDS011;48391;49.184;2.418;2024-03-29T07:52:26;7.40;;;3.60;;
62353;SDS011;48391;49.184;2.418;2024-03-29T07:54:52;7.78;;;4.00;;
62353;SDS011;48391;49.184;2.418;2024-03-29T07:57:18;8.13;;;3.13;;
62353;SDS011;48391;49.184;2.418;2024-03-29T07:59:44;7.63;;;2.00;;
62353;SDS011;48391;49.184;2.418;2024-03-29T08:02:10;12.88;;;3.58;;
62353;SDS011;48391;49.184;2.418;2024-03-29T08:04:36;3.70;;;1.42;;
62353;SDS011;48391;49.184;2.418;2024-03-29T08:07:03;4.00;;;2.00;;
62353;SDS011;48391;49.184;2.418;2024-03-29T08:09:29;4.43;;;1.10;;
62353;SDS011;48391;49.184;2.418;2024-03-29T08:11:55;2.63;;;1.40;;
62353;SDS011;48391;49.184;2.418;2024-03-29T08:14:21;7.13;;;2.88;;
62353;SDS011;48391;49.184;2.418;2024-03-29T08:16:50;5.75;;;1.88;;
62353;SDS011;48391;49.184;2.418;2024-03-29T08:19:16;3.85;;;1.10;;
62353;SDS011;48391;49.184;2.418;2024-03-29T08:21:43;2.38;;;0.68;;
62353;SDS011;48391;49.184;2.418;2024-03-29T08:24:09;2.20;;;0.90;;
62353;SDS011;48391;49.184;2.418;2024-03-29T08:26:36;2.83;;;0.98;;
62353;SDS011;48391;49.184;2.418;2024-03-29T08:29:02;2.70;;;0.85;;
62353;SDS011;48391;49.184;2.418;2024-03-29T08:31:28;1.52;;;0.73;;
62353;SDS011;48391;49.184;2.418;2024-03-29T08:33:54;1.95;;;0.95;;
62353;SDS011;48391;49.184;2.418;2024-03-29T08:36:20;1.45;;;0.85;;
62353;SDS011;48391;49.184;2.418;2024-03-29T08:38:46;1.35;;;0.73;;
62353;SDS011;48391;49.184;2.418;2024-03-29T08:41:13;3.15;;;0.50;;
62353;SDS011;48391;49.184;2.418;2024-03-29T08:43:39;4.75;;;0.95;;
62353;SDS011;48391;49.184;2.418;2024-03-29T08:46:05;9.80;;;2.63;;
62353;SDS011;48391;49.184;2.418;2024-03-29T08:48:34;2.17;;;0.63;;
62353;SDS011;48391;49.184;2.418;2024-03-29T08:51:02;3.40;;;0.98;;
62353;SDS011;48391;49.184;2.418;2024-03-29T08:53:28;2.88;;;1.05;;
62353;SDS011;48391;49.184;2.418;2024-03-29T08:55:54;1.80;;;1.33;;
62353;SDS011;48391;49.184;2.418;2024-03-29T08:58:20;5.25;;;0.75;;
62353;SDS011;48391;49.184;2.418;2024-03-29T09:00:54;1.98;;;0.75;;
62353;SDS011;48391;49.184;2.418;2024-03-29T09:03:23;3.33;;;0.60;;
62353;SDS011;48391;49.184;2.418;2024-03-29T09:05:50;3.50;;;1.00;;
62353;SDS011;48391;49.184;2.418;2024-03-29T09:08:16;3.10;;;0.90;;
62353;SDS011;48391;49.184;2.418;2024-03-29T09:10:43;3.30;;;0.50;;
62353;SDS011;48391;49.184;2.418;2024-03-29T09:13:09;3.20;;;1.52;;
62353;SDS011;48391;49.184;2.418;2024-03-29T09:15:35;3.17;;;1.67;;
62353;SDS011;48391;49.184;2.418;2024-03-29T09:18:01;3.65;;;0.68;;
62353;SDS011;48391;49.184;2.418;2024-03-29T09:20:34;1.50;;;0.40;;
62353;SDS011;48391;49.184;2.418;2024-03-29T09:23:00;1.02;;;0.40;;
62353;SDS011;48391;49.184;2.418;2024-03-29T09:25:26;1.88;;;0.50;;
62353;SDS011;48391;49.184;2.418;2024-03-29T09:27:52;4.60;;;0.50;;
62353;SDS011;48391;49.184;2.418;2024-03-29T09:30:18;3.50;;;0.82;;
62353;SDS011;48391;49.184;2.418;2024-03-29T09:32:45;5.35;;;1.35;;
62353;SDS011;48391;49.184;2.418;2024-03-29T09:35:13;3.72;;;0.50;;
62353;SDS011;48391;49.184;2.418;2024-03-29T09:37:39;1.85;;;0.40;;
62353;SDS011;48391;49.184;2.418;2024-03-29T09:40:07;1.10;;;0.40;;
62353;SDS011;48391;49.184;2.418;2024-03-29T09:42:34;0.65;;;0.40;;
62353;SDS011;48391;49.184;2.418;2024-03-29T09:45:01;1.50;;;0.52;;
62353;SDS011;48391;49.184;2.418;2024-03-29T09:47:34;5.32;;;0.75;;
62353;SDS011;48391;49.184;2.418;2024-03-29T09:50:02;5.03;;;1.35;;
62353;SDS011;48391;49.184;2.418;2024-03-29T09:52:29;3.35;;;0.47;;
62353;SDS011;48391;49.184;2.418;2024-03-29T09:54:56;2.58;;;0.50;;
62353;SDS011;48391;49.184;2.418;2024-03-29T09:57:22;3.05;;;0.40;;
62353;SDS011;48391;49.184;2.418;2024-03-29T09:59:49;1.00;;;0.03;;
62353;SDS011;48391;49.184;2.418;2024-03-29T10:02:16;2.08;;;0.73;;
62353;SDS011;48391;49.184;2.418;2024-03-29T10:04:45;4.43;;;0.70;;
62353;SDS011;48391;49.184;2.418;2024-03-29T10:07:12;3.25;;;0.35;;
62353;SDS011;48391;49.184;2.418;2024-03-29T10:09:40;2.58;;;0.52;;
62353;SDS011;48391;49.184;2.418;2024-03-29T10:12:07;1.10;;;0.30;;
62353;SDS011;48391;49.184;2.418;2024-03-29T10:14:42;5.78;;;0.60;;
62353;SDS011;48391;49.184;2.418;2024-03-29T10:17:09;1.58;;;0.30;;
62353;SDS011;48391;49.184;2.418;2024-03-29T10:19:35;8.77;;;0.50;;
62353;SDS011;48391;49.184;2.418;2024-03-29T10:22:07;4.28;;;0.73;;
62353;SDS011;48391;49.184;2.418;2024-03-29T10:24:33;2.15;;;0.40;;
62353;SDS011;48391;49.184;2.418;2024-03-29T10:26:59;2.08;;;0.47;;
62353;SDS011;48391;49.184;2.418;2024-03-29T10:29:29;0.65;;;0.20;;
62353;SDS011;48391;49.184;2.418;2024-03-29T10:31:55;2.63;;;0.90;;
62353;SDS011;48391;49.184;2.418;2024-03-29T10:34:21;0.70;;;0.00;;
62353;SDS011;48391;49.184;2.418;2024-03-29T10:36:48;0.68;;;0.43;;
62353;SDS011;48391;49.184;2.418;2024-03-29T10:39:16;3.72;;;0.22;;
62353;SDS011;48391;49.184;2.418;2024-03-29T10:41:43;0.63;;;0.10;;
62353;SDS011;48391;49.184;2.418;2024-03-29T10:44:10;2.78;;;0.20;;
62353;SDS011;48391;49.184;2.418;2024-03-29T10:46:39;0.63;;;0.08;;
62353;SDS011;48391;49.184;2.418;2024-03-29T10:49:12;3.35;;;0.63;;
62353;SDS011;48391;49.184;2.418;2024-03-29T10:51:41;1.45;;;0.32;;
62353;SDS011;48391;49.184;2.418;2024-03-29T10:54:08;1.23;;;0.10;;
62353;SDS011;48391;49.184;2.418;2024-03-29T10:56:37;0.38;;;0.17;;
62353;SDS011;48391;49.184;2.418;2024-03-29T10:59:12;2.15;;;0.10;;
62353;SDS011;48391;49.184;2.418;2024-03-29T11:01:39;2.10;;;0.25;;
62353;SDS011;48391;49.184;2.418;2024-03-29T11:04:10;4.63;;;1.10;;
62353;SDS011;48391;49.184;2.418;2024-03-29T11:06:39;2.20;;;0.20;;
62353;SDS011;48391;49.184;2.418;2024-03-29T11:09:08;1.95;;;0.43;;
62353;SDS011;48391;49.184;2.418;2024-03-29T11:11:37;2.00;;;0.17;;
62353;SDS011;48391;49.184;2.418;2024-03-29T11:14:07;3.33;;;0.10;;
62353;SDS011;48391;49.184;2.418;2024-03-29T11:16:33;1.85;;;0.20;;
62353;SDS011;48391;49.184;2.418;2024-03-29T11:19:00;3.83;;;0.38;;
62353;SDS011;48391;49.184;2.418;2024-03-29T11:21:30;2.67;;;0.35;;
62353;SDS011;48391;49.184;2.418;2024-03-29T11:23:57;1.67;;;0.10;;
62353;SDS011;48391;49.184;2.418;2024-03-29T11:26:26;0.30;;;0.28;;
62353;SDS011;48391;49.184;2.418;2024-03-29T11:28:53;0.68;;;0.47;;
62353;SDS011;48391;49.184;2.418;2024-03-29T11:31:24;0.08;;;0.00;;
62353;SDS011;48391;49.184;2.418;2024-03-29T11:33:50;1.40;;;0.00;;
62353;SDS011;48391;49.184;2.418;2024-03-29T11:36:22;3.05;;;0.38;;
62353;SDS011;48391;49.184;2.418;2024-03-29T11:38:52;5.90;;;1.42;;
62353;SDS011;48391;49.184;2.418;2024-03-29T11:41:22;2.10;;;0.20;;
62353;SDS011;48391;49.184;2.418;2024-03-29T11:43:48;2.35;;;0.50;;
62353;SDS011;48391;49.184;2.418;2024-03-29T11:46:15;2.42;;;0.65;;
62353;SDS011;48391;49.184;2.418;2024-03-29T11:48:42;4.78;;;0.20;;
62353;SDS011;48391;49.184;2.418;2024-03-29T11:51:21;2.30;;;0.63;;
62353;SDS011;48391;49.184;2.418;2024-03-29T11:53:49;1.75;;;0.10;;
62353;SDS011;48391;49.184;2.418;2024-03-29T11:56:20;2.42;;;0.50;;
62353;SDS011;48391;49.184;2.418;2024-03-29T11:58:46;1.55;;;0.10;;
62353;SDS011;48391;49.184;2.418;2024-03-29T12:01:16;2.25;;;0.20;;
62353;SDS011;48391;49.184;2.418;2024-03-29T12:03:42;1.95;;;0.88;;
62353;SDS011;48391;49.184;2.418;2024-03-29T12:06:09;0.20;;;0.10;;
62353;SDS011;48391;49.184;2.418;2024-03-29T12:08:37;0.45;;;0.10;;
62353;SDS011;48391;49.184;2.418;2024-03-29T12:11:03;2.75;;;0.35;;
62353;SDS011;48391;49.184;2.418;2024-03-29T12:13:30;0.95;;;0.55;;
62353;SDS011;48391;49.184;2.418;2024-03-29T12:15:59;2.30;;;0.30;;
62353;SDS011;48391;49.184;2.418;2024-03-29T12:18:26;0.75;;;0.20;;
62353;SDS011;48391;49.184;2.418;2024-03-29T12:20:53;2.05;;;0.38;;
62353;SDS011;48391;49.184;2.418;2024-03-29T12:23:20;1.65;;;0.20;;
62353;SDS011;48391;49.184;2.418;2024-03-29T12:25:47;0.82;;;0.20;;
62353;SDS011;48391;49.184;2.418;2024-03-29T12:28:13;0.45;;;0.32;;
62353;SDS011;48391;49.184;2.418;2024-03-29T12:30:41;4.13;;;1.85;;
62353;SDS011;48391;49.184;2.418;2024-03-29T12:33:08;0.60;;;0.10;;
62353;SDS011;48391;49.184;2.418;2024-03-29T12:35:35;1.52;;;0.85;;
62353;SDS011;48391;49.184;2.418;2024-03-29T12:38:02;8.65;;;1.00;;
62353;SDS011;48391;49.184;2.418;2024-03-29T12:40:30;5.05;;;1.17;;
62353;SDS011;48391;49.184;2.418;2024-03-29T12:43:01;2.25;;;0.70;;
62353;SDS011;48391;49.184;2.418;2024-03-29T12:45:28;1.45;;;0.47;;
62353;SDS011;48391;49.184;2.418;2024-03-29T12:47:54;1.73;;;0.98;;
62353;SDS011;48391;49.184;2.418;2024-03-29T12:50:32;2.90;;;1.25;;
62353;SDS011;48391;49.184;2.418;2024-03-29T12:52:59;3.95;;;0.70;;
62353;SDS011;48391;49.184;2.418;2024-03-29T12:55:26;5.05;;;0.55;;
62353;SDS011;48391;49.184;2.418;2024-03-29T12:57:56;2.40;;;0.65;;
62353;SDS011;48391;49.184;2.418;2024-03-29T13:00:25;1.95;;;0.22;;
62353;SDS011;48391;49.184;2.418;2024-03-29T13:02:52;3.95;;;0.50;;
62353;SDS011;48391;49.184;2.418;2024-03-29T13:05:18;2.90;;;0.73;;
62353;SDS011;48391;49.184;2.418;2024-03-29T13:07:44;1.63;;;0.20;;
62353;SDS011;48391;49.184;2.418;2024-03-29T13:10:10;0.88;;;0.40;;
62353;SDS011;48391;49.184;2.418;2024-03-29T13:12:42;1.17;;;0.35;;
62353;SDS011;48391;49.184;2.418;2024-03-29T13:15:15;2.47;;;0.35;;
62353;SDS011;48391;49.184;2.418;2024-03-29T13:17:41;1.30;;;0.25;;
62353;SDS011;48391;49.184;2.418;2024-03-29T13:20:07;2.30;;;0.35;;
62353;SDS011;48391;49.184;2.418;2024-03-29T13:22:35;0.77;;;0.55;;
62353;SDS011;48391;49.184;2.418;2024-03-29T13:25:02;2.13;;;0.30;;
62353;SDS011;48391;49.184;2.418;2024-03-29T13:27:30;1.35;;;0.30;;
62353;SDS011;48391;49.184;2.418;2024-03-29T13:29:56;1.00;;;0.13;;
62353;SDS011;48391;49.184;2.418;2024-03-29T13:32:22;3.35;;;0.45;;
62353;SDS011;48391;49.184;2.418;2024-03-29T13:34:48;1.42;;;0.40;;
62353;SDS011;48391;49.184;2.418;2024-03-29T13:37:14;3.38;;;0.20;;
62353;SDS011;48391;49.184;2.418;2024-03-29T13:39:40;1.75;;;0.22;;
62353;SDS011;48391;49.184;2.418;2024-03-29T13:42:06;1.00;;;0.28;;
62353;SDS011;48391;49.184;2.418;2024-03-29T13:44:32;2.65;;;0.10;;
62353;SDS011;48391;49.184;2.418;2024-03-29T13:46:59;1.90;;;0.47;;
62353;SDS011;48391;49.184;2.418;2024-03-29T13:49:29;2.28;;;1.08;;
62353;SDS011;48391;49.184;2.418;2024-03-29T13:51:57;1.90;;;1.65;;
62353;SDS011;48391;49.184;2.418;2024-03-29T13:54:23;3.28;;;0.57;;
62353;SDS011;48391;49.184;2.418;2024-03-29T13:56:49;3.63;;;0.70;;
62353;SDS011;48391;49.184;2.418;2024-03-29T13:59:15;1.02;;;0.30;;
62353;SDS011;48391;49.184;2.418;2024-03-29T14:01:41;1.08;;;0.10;;
62353;SDS011;48391;49.184;2.418;2024-03-29T14:04:07;1.75;;;0.30;;
62353;SDS011;48391;49.184;2.418;2024-03-29T14:06:33;4.88;;;2.05;;
62353;SDS011;48391;49.184;2.418;2024-03-29T14:08:59;6.53;;;1.70;;
62353;SDS011;48391;49.184;2.418;2024-03-29T14:11:27;1.27;;;0.30;;
62353;SDS011;48391;49.184;2.418;2024-03-29T14:13:53;1.73;;;0.68;;
62353;SDS011;48391;49.184;2.418;2024-03-29T14:16:21;3.63;;;0.43;;
62353;SDS011;48391;49.184;2.418;2024-03-29T14:18:47;4.43;;;0.63;;
62353;SDS011;48391;49.184;2.418;2024-03-29T14:21:13;2.67;;;0.50;;
62353;SDS011;48391;49.184;2.418;2024-03-29T14:23:39;3.08;;;0.20;;
62353;SDS011;48391;49.184;2.418;2024-03-29T14:26:05;0.50;;;0.35;;
62353;SDS011;48391;49.184;2.418;2024-03-29T14:28:31;2.25;;;0.20;;
62353;SDS011;48391;49.184;2.418;2024-03-29T14:30:57;1.65;;;0.43;;
62353;SDS011;48391;49.184;2.418;2024-03-29T14:33:23;2.10;;;0.57;;
62353;SDS011;48391;49.184;2.418;2024-03-29T14:35:50;0.20;;;0.10;;
62353;SDS011;48391;49.184;2.418;2024-03-29T14:38:16;3.75;;;0.47;;
62353;SDS011;48391;49.184;2.418;2024-03-29T14:40:42;1.38;;;0.38;;
62353;SDS011;48391;49.184;2.418;2024-03-29T14:43:08;2.42;;;0.73;;
62353;SDS011;48391;49.184;2.418;2024-03-29T14:45:34;4.55;;;0.40;;
62353;SDS011;48391;49.184;2.418;2024-03-29T14:48:00;0.50;;;0.15;;
62353;SDS011;48391;49.184;2.418;2024-03-29T14:50:26;1.88;;;0.10;;
62353;SDS011;48391;49.184;2.418;2024-03-29T14:52:52;2.42;;;0.10;;
62353;SDS011;48391;49.184;2.418;2024-03-29T14:55:18;1.85;;;0.20;;
62353;SDS011;48391;49.184;2.418;2024-03-29T14:57:44;4.10;;;0.32;;
62353;SDS011;48391;49.184;2.418;2024-03-29T15:00:11;1.10;;;0.50;;
62353;SDS011;48391;49.184;2.418;2024-03-29T15:02:37;1.25;;;0.25;;
62353;SDS011;48391;49.184;2.418;2024-03-29T15:05:04;1.02;;;0.38;;
62353;SDS011;48391;49.184;2.418;2024-03-29T15:07:31;2.83;;;0.40;;
62353;SDS011;48391;49.184;2.418;2024-03-29T15:09:58;1.17;;;0.15;;
62353;SDS011;48391;49.184;2.418;2024-03-29T15:12:25;0.20;;;0.00;;
62353;SDS011;48391;49.184;2.418;2024-03-29T15:14:51;2.10;;;0.43;;
62353;SDS011;48391;49.184;2.418;2024-03-29T15:17:17;6.57;;;0.32;;
62353;SDS011;48391;49.184;2.418;2024-03-29T15:19:45;0.57;;;0.10;;
62353;SDS011;48391;49.184;2.418;2024-03-29T15:22:15;3.13;;;0.65;;
62353;SDS011;48391;49.184;2.418;2024-03-29T15:24:41;1.80;;;0.40;;
62353;SDS011;48391;49.184;2.418;2024-03-29T15:27:08;1.55;;;0.43;;
62353;SDS011;48391;49.184;2.418;2024-03-29T15:29:41;2.10;;;0.22;;
62353;SDS011;48391;49.184;2.418;2024-03-29T15:32:07;2.00;;;0.60;;
62353;SDS011;48391;49.184;2.418;2024-03-29T15:34:34;1.25;;;0.10;;
62353;SDS011;48391;49.184;2.418;2024-03-29T15:37:00;2.25;;;0.30;;
62353;SDS011;48391;49.184;2.418;2024-03-29T15:39:26;0.57;;;0.40;;
62353;SDS011;48391;49.184;2.418;2024-03-29T15:41:54;0.75;;;0.20;;
62353;SDS011;48391;49.184;2.418;2024-03-29T15:44:20;0.82;;;0.30;;
62353;SDS011;48391;49.184;2.418;2024-03-29T15:46:47;2.60;;;0.90;;
62353;SDS011;48391;49.184;2.418;2024-03-29T15:49:13;1.27;;;0.50;;
62353;SDS011;48391;49.184;2.418;2024-03-29T15:51:39;2.58;;;0.30;;
62353;SDS011;48391;49.184;2.418;2024-03-29T15:54:05;0.93;;;0.10;;
62353;SDS011;48391;49.184;2.418;2024-03-29T15:56:33;0.20;;;0.17;;
62353;SDS011;48391;49.184;2.418;2024-03-29T15:59:00;1.17;;;0.20;;
62353;SDS011;48391;49.184;2.418;2024-03-29T16:01:28;3.90;;;1.02;;
62353;SDS011;48391;49.184;2.418;2024-03-29T16:03:54;0.30;;;0.10;;
62353;SDS011;48391;49.184;2.418;2024-03-29T16:06:20;3.15;;;0.38;;
62353;SDS011;48391;49.184;2.418;2024-03-29T16:08:46;1.13;;;0.20;;
62353;SDS011;48391;49.184;2.418;2024-03-29T16:11:12;1.88;;;0.22;;
62353;SDS011;48391;49.184;2.418;2024-03-29T16:13:39;0.20;;;0.20;;
62353;SDS011;48391;49.184;2.418;2024-03-29T16:16:06;0.43;;;0.20;;
62353;SDS011;48391;49.184;2.418;2024-03-29T16:18:33;0.68;;;0.10;;
62353;SDS011;48391;49.184;2.418;2024-03-29T16:21:00;1.77;;;0.20;;
62353;SDS011;48391;49.184;2.418;2024-03-29T16:23:26;2.10;;;0.10;;
62353;SDS011;48391;49.184;2.418;2024-03-29T16:25:52;0.88;;;0.10;;
62353;SDS011;48391;49.184;2.418;2024-03-29T16:28:20;0.30;;;0.25;;
62353;SDS011;48391;49.184;2.418;2024-03-29T16:30:47;3.70;;;0.65;;
62353;SDS011;48391;49.184;2.418;2024-03-29T16:33:14;5.15;;;0.20;;
62353;SDS011;48391;49.184;2.418;2024-03-29T16:35:40;4.45;;;0.30;;
62353;SDS011;48391;49.184;2.418;2024-03-29T16:38:06;1.13;;;0.32;;
62353;SDS011;48391;49.184;2.418;2024-03-29T16:40:35;2.80;;;0.68;;
62353;SDS011;48391;49.184;2.418;2024-03-29T16:43:01;2.05;;;0.73;;
62353;SDS011;48391;49.184;2.418;2024-03-29T16:45:28;0.77;;;0.35;;
62353;SDS011;48391;49.184;2.418;2024-03-29T16:47:54;0.82;;;0.10;;
62353;SDS011;48391;49.184;2.418;2024-03-29T16:50:20;1.80;;;0.52;;
62353;SDS011;48391;49.184;2.418;2024-03-29T16:52:48;1.08;;;0.43;;
62353;SDS011;48391;49.184;2.418;2024-03-29T16:55:14;3.58;;;0.60;;
62353;SDS011;48391;49.184;2.418;2024-03-29T16:57:40;2.38;;;0.30;;
62353;SDS011;48391;49.184;2.418;2024-03-29T17:00:09;1.20;;;0.52;;
62353;SDS011;48391;49.184;2.418;2024-03-29T17:02:40;2.28;;;0.57;;
62353;SDS011;48391;49.184;2.418;2024-03-29T17:05:07;3.13;;;0.75;;
62353;SDS011;48391;49.184;2.418;2024-03-29T17:07:33;1.65;;;0.32;;
62353;SDS011;48391;49.184;2.418;2024-03-29T17:09:59;2.00;;;0.73;;
62353;SDS011;48391;49.184;2.418;2024-03-29T17:12:25;3.58;;;0.80;;
62353;SDS011;48391;49.184;2.418;2024-03-29T17:14:54;2.78;;;0.52;;
62353;SDS011;48391;49.184;2.418;2024-03-29T17:17:20;2.80;;;0.63;;
62353;SDS011;48391;49.184;2.418;2024-03-29T17:19:48;2.85;;;0.38;;
62353;SDS011;48391;49.184;2.418;2024-03-29T17:22:14;4.18;;;0.95;;
62353;SDS011;48391;49.184;2.418;2024-03-29T17:24:40;1.45;;;0.57;;
62353;SDS011;48391;49.184;2.418;2024-03-29T17:27:06;4.50;;;0.50;;
62353;SDS011;48391;49.184;2.418;2024-03-29T17:29:33;3.10;;;1.20;;
62353;SDS011;48391;49.184;2.418;2024-03-29T17:32:00;3.28;;;1.63;;
62353;SDS011;48391;49.184;2.418;2024-03-29T17:34:29;1.80;;;0.80;;
62353;SDS011;48391;49.184;2.418;2024-03-29T17:36:55;7.47;;;1.25;;
62353;SDS011;48391;49.184;2.418;2024-03-29T17:39:21;2.13;;;0.98;;
62353;SDS011;48391;49.184;2.418;2024-03-29T17:41:47;6.40;;;2.17;;
62353;SDS011;48391;49.184;2.418;2024-03-29T17:44:14;6.47;;;2.05;;
62353;SDS011;48391;49.184;2.418;2024-03-29T17:46:41;2.08;;;1.02;;
62353;SDS011;48391;49.184;2.418;2024-03-29T17:49:07;1.80;;;0.60;;
62353;SDS011;48391;49.184;2.418;2024-03-29T17:51:36;3.55;;;0.60;;
62353;SDS011;48391;49.184;2.418;2024-03-29T17:54:02;2.10;;;0.57;;
62353;SDS011;48391;49.184;2.418;2024-03-29T17:56:31;1.95;;;0.60;;
62353;SDS011;48391;49.184;2.418;2024-03-29T17:58:57;0.88;;;0.30;;
62353;SDS011;48391;49.184;2.418;2024-03-29T18:01:23;0.60;;;0.40;;
62353;SDS011;48391;49.184;2.418;2024-03-29T18:03:49;2.75;;;0.40;;
62353;SDS011;48391;49.184;2.418;2024-03-29T18:06:17;1.30;;;0.68;;
62353;SDS011;48391;49.184;2.418;2024-03-29T18:08:43;0.40;;;0.22;;
62353;SDS011;48391;49.184;2.418;2024-03-29T18:11:09;3.00;;;0.52;;
62353;SDS011;48391;49.184;2.418;2024-03-29T18:13:44;2.00;;;1.15;;
62353;SDS011;48391;49.184;2.418;2024-03-29T18:16:11;3.90;;;2.10;;
62353;SDS011;48391;49.184;2.418;2024-03-29T18:18:38;6.10;;;2.17;;
62353;SDS011;48391;49.184;2.418;2024-03-29T18:21:04;3.42;;;0.98;;
62353;SDS011;48391;49.184;2.418;2024-03-29T18:23:30;6.47;;;1.10;;
62353;SDS011;48391;49.184;2.418;2024-03-29T18:25:56;2.25;;;0.82;;
62353;SDS011;48391;49.184;2.418;2024-03-29T18:28:23;4.00;;;1.55;;
62353;SDS011;48391;49.184;2.418;2024-03-29T18:30:51;4.10;;;1.20;;
62353;SDS011;48391;49.184;2.418;2024-03-29T18:33:18;1.45;;;0.70;;
62353;SDS011;48391;49.184;2.418;2024-03-29T18:35:44;1.23;;;0.95;;
62353;SDS011;48391;49.184;2.418;2024-03-29T18:38:10;1.25;;;0.45;;
62353;SDS011;48391;49.184;2.418;2024-03-29T18:40:36;3.00;;;0.88;;
62353;SDS011;48391;49.184;2.418;2024-03-29T18:43:02;1.98;;;1.02;;
62353;SDS011;48391;49.184;2.418;2024-03-29T18:45:28;2.80;;;1.25;;
62353;SDS011;48391;49.184;2.418;2024-03-29T18:47:54;1.25;;;0.65;;
62353;SDS011;48391;49.184;2.418;2024-03-29T18:50:20;1.73;;;0.90;;
62353;SDS011;48391;49.184;2.418;2024-03-29T18:52:47;2.58;;;0.70;;
62353;SDS011;48391;49.184;2.418;2024-03-29T18:55:15;1.15;;;0.47;;
62353;SDS011;48391;49.184;2.418;2024-03-29T18:57:41;1.40;;;0.70;;
62353;SDS011;48391;49.184;2.418;2024-03-29T19:00:07;2.47;;;0.93;;
62353;SDS011;48391;49.184;2.418;2024-03-29T19:02:34;0.65;;;0.45;;
62353;SDS011;48391;49.184;2.418;2024-03-29T19:05:00;1.10;;;0.80;;
62353;SDS011;48391;49.184;2.418;2024-03-29T19:07:26;0.98;;;0.50;;
62353;SDS011;48391;49.184;2.418;2024-03-29T19:09:52;1.52;;;0.45;;
62353;SDS011;48391;49.184;2.418;2024-03-29T19:12:18;4.03;;;0.43;;
62353;SDS011;48391;49.184;2.418;2024-03-29T19:14:48;2.75;;;0.32;;
62353;SDS011;48391;49.184;2.418;2024-03-29T19:17:15;4.03;;;0.57;;
62353;SDS011;48391;49.184;2.418;2024-03-29T19:19:41;0.50;;;0.43;;
62353;SDS011;48391;49.184;2.418;2024-03-29T19:22:07;2.28;;;1.13;;
62353;SDS011;48391;49.184;2.418;2024-03-29T19:24:33;0.95;;;0.35;;
62353;SDS011;48391;49.184;2.418;2024-03-29T19:26:59;0.98;;;0.35;;
62353;SDS011;48391;49.184;2.418;2024-03-29T19:29:25;1.27;;;0.40;;
62353;SDS011;48391;49.184;2.418;2024-03-29T19:31:51;0.32;;;0.30;;
62353;SDS011;48391;49.184;2.418;2024-03-29T19:34:18;2.15;;;0.45;;
62353;SDS011;48391;49.184;2.418;2024-03-29T19:36:44;0.22;;;0.22;;
62353;SDS011;48391;49.184;2.418;2024-03-29T19:39:14;1.13;;;0.40;;
62353;SDS011;48391;49.184;2.418;2024-03-29T19:41:41;1.48;;;0.57;;
62353;SDS011;48391;49.184;2.418;2024-03-29T19:44:10;1.00;;;0.40;;
62353;SDS011;48391;49.184;2.418;2024-03-29T19:49:15;0.82;;;0.35;;
62353;SDS011;48391;49.184;2.418;2024-03-29T19:51:47;14.57;;;1.65;;
62353;SDS011;48391;49.184;2.418;2024-03-29T19:54:14;1.15;;;0.50;;
62353;SDS011;48391;49.184;2.418;2024-03-29T19:56:40;1.58;;;0.35;;
62353;SDS011;48391;49.184;2.418;2024-03-29T19:59:09;1.00;;;0.40;;
62353;SDS011;48391;49.184;2.418;2024-03-29T20:01:35;1.92;;;0.22;;
62353;SDS011;48391;49.184;2.418;2024-03-29T20:04:04;2.03;;;0.85;;
62353;SDS011;48391;49.184;2.418;2024-03-29T20:06:33;0.77;;;0.25;;
62353;SDS011;48391;49.184;2.418;2024-03-29T20:11:38;1.08;;;0.45;;
62353;SDS011;48391;49.184;2.418;2024-03-29T20:19:50;5.95;;;2.00;;
62353;SDS011;48391;49.184;2.418;2024-03-29T20:22:16;2.08;;;0.50;;
62353;SDS011;48391;49.184;2.418;2024-03-29T20:24:42;0.63;;;0.40;;
62353;SDS011;48391;49.184;2.418;2024-03-29T20:27:11;1.02;;;0.50;;
62353;SDS011;48391;49.184;2.418;2024-03-29T20:29:37;1.42;;;0.68;;
62353;SDS011;48391;49.184;2.418;2024-03-29T20:32:03;2.20;;;0.63;;
62353;SDS011;48391;49.184;2.418;2024-03-29T20:34:34;0.85;;;0.55;;
62353;SDS011;48391;49.184;2.418;2024-03-29T20:37:02;3.35;;;0.70;;
62353;SDS011;48391;49.184;2.418;2024-03-29T20:39:29;1.73;;;0.93;;
62353;SDS011;48391;49.184;2.418;2024-03-29T20:41:55;0.38;;;0.20;;
62353;SDS011;48391;49.184;2.418;2024-03-29T20:44:21;1.85;;;0.70;;
62353;SDS011;48391;49.184;2.418;2024-03-29T20:46:47;2.15;;;0.43;;
62353;SDS011;48391;49.184;2.418;2024-03-29T20:49:14;1.58;;;1.23;;
62353;SDS011;48391;49.184;2.418;2024-03-29T20:51:40;0.68;;;0.45;;
62353;SDS011;48391;49.184;2.418;2024-03-29T20:54:06;1.02;;;0.60;;
62353;SDS011;48391;49.184;2.418;2024-03-29T20:56:33;1.73;;;0.70;;
62353;SDS011;48391;49.184;2.418;2024-03-29T20:58:59;3.45;;;0.80;;
62353;SDS011;48391;49.184;2.418;2024-03-29T21:01:25;2.97;;;0.60;;
62353;SDS011;48391;49.184;2.418;2024-03-29T21:04:10;1.50;;;0.77;;
62353;SDS011;48391;49.184;2.418;2024-03-29T21:06:55;1.63;;;0.93;;
62353;SDS011;48391;49.184;2.418;2024-03-29T21:09:21;3.53;;;1.20;;
62353;SDS011;48391;49.184;2.418;2024-03-29T21:11:48;2.38;;;0.73;;
62353;SDS011;48391;49.184;2.418;2024-03-29T21:14:14;1.30;;;0.80;;
62353;SDS011;48391;49.184;2.418;2024-03-29T21:16:40;1.30;;;0.90;;
62353;SDS011;48391;49.184;2.418;2024-03-29T21:21:34;2.03;;;0.75;;
62353;SDS011;48391;49.184;2.418;2024-03-29T21:24:01;2.78;;;0.98;;
62353;SDS011;48391;49.184;2.418;2024-03-29T21:26:29;1.10;;;0.90;;
62353;SDS011;48391;49.184;2.418;2024-03-29T21:28:55;4.80;;;0.65;;
62353;SDS011;48391;49.184;2.418;2024-03-29T21:31:21;1.55;;;0.55;;
62353;SDS011;48391;49.184;2.418;2024-03-29T21:33:48;1.40;;;0.77;;
62353;SDS011;48391;49.184;2.418;2024-03-29T21:36:14;1.17;;;0.98;;
62353;SDS011;48391;49.184;2.418;2024-03-29T21:38:40;2.60;;;1.50;;
62353;SDS011;48391;49.184;2.418;2024-03-29T21:41:06;2.80;;;1.52;;
